createdAt,value
2022-10-07T00:00:56.529Z,13.40
2022-10-07T00:06:24.356Z,13.40
2022-10-07T00:11:52.139Z,13.40
2022-10-07T00:17:19.865Z,13.40
2022-10-07T00:22:47.592Z,13.40
2022-10-07T00:28:15.721Z,13.40
2022-10-07T00:33:44.130Z,13.40
2022-10-07T00:39:15.110Z,13.40
2022-10-07T00:44:45.511Z,13.40
2022-10-07T00:50:25.356Z,13.40
2022-10-07T00:55:57.219Z,13.40
2022-10-07T01:01:26.793Z,13.40
2022-10-07T01:06:55.214Z,13.40
2022-10-07T01:12:37.803Z,13.30
2022-10-07T01:18:13.979Z,13.30
2022-10-07T01:24:33.378Z,13.20
2022-10-07T01:30:06.555Z,13.20
2022-10-07T01:35:36.765Z,13.10
2022-10-07T01:41:23.279Z,12.90
2022-10-07T01:46:51.784Z,12.90
2022-10-07T01:52:47.330Z,12.80
2022-10-07T01:58:50.321Z,12.70
2022-10-07T02:04:50.720Z,12.60
2022-10-07T02:10:48.076Z,12.50
2022-10-07T02:16:57.154Z,12.40
2022-10-07T02:22:29.211Z,12.40
2022-10-07T02:27:58.109Z,12.40
2022-10-07T02:33:30.771Z,12.30
2022-10-07T02:39:01.344Z,12.30
2022-10-07T02:44:43.231Z,12.20
2022-10-07T02:50:17.593Z,12.20
2022-10-07T02:55:49.033Z,12.10
2022-10-07T03:01:23.922Z,12.10
2022-10-07T03:06:53.476Z,12.00
2022-10-07T03:12:21.309Z,11.90
2022-10-07T03:17:49.155Z,11.80
2022-10-07T03:23:17.341Z,11.70
2022-10-07T03:28:46.144Z,11.60
2022-10-07T03:34:14.112Z,11.50
2022-10-07T03:39:44.781Z,11.30
2022-10-07T03:45:12.898Z,11.20
2022-10-07T03:50:41.765Z,11.10
2022-10-07T03:56:09.792Z,11.00
2022-10-07T04:01:39.862Z,10.90
2022-10-07T04:07:08.094Z,10.80
2022-10-07T04:12:35.917Z,10.70
2022-10-07T04:18:03.982Z,10.70
2022-10-07T04:23:31.973Z,10.60
2022-10-07T04:29:00.192Z,10.50
2022-10-07T04:34:28.573Z,10.40
2022-10-07T04:40:00.991Z,10.40
2022-10-07T04:45:35.235Z,10.30
2022-10-07T04:51:07.880Z,10.20
2022-10-07T04:56:36.463Z,10.20
2022-10-07T05:02:07.372Z,10.20
2022-10-07T05:07:36.968Z,10.20
2022-10-07T05:13:12.253Z,10.10
2022-10-07T05:18:41.129Z,10.10
2022-10-07T05:24:12.812Z,10.10
2022-10-07T05:29:41.431Z,10.10
2022-10-07T05:35:10.638Z,10.10
2022-10-07T05:40:38.634Z,10.00
2022-10-07T05:46:15.716Z,10.10
2022-10-07T05:51:48.545Z,10.10
2022-10-07T05:57:16.346Z,10.20
2022-10-07T06:02:44.484Z,10.30
2022-10-07T06:08:13.875Z,10.40
2022-10-07T06:13:41.983Z,10.50
2022-10-07T06:19:22.839Z,10.50
2022-10-07T06:24:57.826Z,10.60
2022-10-07T06:30:27.877Z,10.70
2022-10-07T06:36:04.197Z,10.70
2022-10-07T06:41:32.280Z,10.70
2022-10-07T06:47:26.013Z,10.80
2022-10-07T06:52:53.879Z,10.90
2022-10-07T06:58:22.640Z,10.90
2022-10-07T07:03:51.571Z,11.00
2022-10-07T07:09:21.492Z,11.20
2022-10-07T07:14:50.489Z,11.20
2022-10-07T07:20:21.517Z,11.30
2022-10-07T07:25:49.386Z,11.40
2022-10-07T07:31:17.469Z,11.50
2022-10-07T07:36:51.173Z,11.60
2022-10-07T07:42:21.820Z,11.70
2022-10-07T07:47:50.396Z,11.80
2022-10-07T07:53:18.664Z,11.80
2022-10-07T07:58:47.170Z,11.80
2022-10-07T08:04:16.601Z,11.90
2022-10-07T08:09:44.622Z,12.00
2022-10-07T08:15:15.176Z,12.20
2022-10-07T08:20:43.518Z,12.20
2022-10-07T08:26:11.960Z,12.20
2022-10-07T08:31:42.640Z,12.30
2022-10-07T08:37:10.540Z,12.40
2022-10-07T08:42:41.883Z,12.40
2022-10-07T08:48:18.597Z,12.50
2022-10-07T08:53:51.914Z,12.40
2022-10-07T08:59:32.259Z,12.40
2022-10-07T09:05:15.462Z,12.40
2022-10-07T09:10:49.723Z,12.50
2022-10-07T09:16:27.693Z,12.60
2022-10-07T09:22:11.245Z,12.60
2022-10-07T09:27:39.166Z,12.70
2022-10-07T09:33:18.979Z,12.60
2022-10-07T09:38:53.020Z,12.70
2022-10-07T09:44:25.931Z,12.70
2022-10-07T09:49:59.886Z,12.80
2022-10-07T09:55:42.240Z,13.00
2022-10-07T10:01:12.026Z,13.20
2022-10-07T10:06:55.643Z,13.30
2022-10-07T10:12:25.478Z,13.40
2022-10-07T10:17:56.986Z,13.60
2022-10-07T10:23:34.714Z,13.80
2022-10-07T10:29:22.338Z,13.90
2022-10-07T10:34:55.165Z,14.10
2022-10-07T10:40:56.642Z,14.40
2022-10-07T10:46:43.342Z,15.00
2022-10-07T10:52:35.065Z,15.20
2022-10-07T10:58:15.330Z,15.40
2022-10-07T11:04:00.902Z,15.90
2022-10-07T11:09:44.116Z,16.40
2022-10-07T11:15:35.582Z,16.60
2022-10-07T11:21:11.986Z,16.80
2022-10-07T11:26:59.873Z,16.70
2022-10-07T11:33:01.501Z,16.90
2022-10-07T11:38:33.952Z,16.80
2022-10-07T11:44:09.802Z,17.00
2022-10-07T11:50:02.498Z,17.30
2022-10-07T11:55:44.182Z,17.50
2022-10-07T12:01:29.989Z,17.30
2022-10-07T12:07:31.995Z,17.40
2022-10-07T12:13:21.384Z,17.50
2022-10-07T12:19:07.289Z,17.90
2022-10-07T12:24:38.466Z,18.30
2022-10-07T12:30:39.625Z,18.60
2022-10-07T12:36:22.378Z,18.80
2022-10-07T12:41:51.087Z,18.80
2022-10-07T12:47:29.876Z,19.10
2022-10-07T12:52:58.848Z,19.10
2022-10-07T12:59:12.798Z,19.30
2022-10-07T13:05:28.661Z,20.30
2022-10-07T13:11:36.957Z,20.80
2022-10-07T13:17:48.283Z,20.90
2022-10-07T13:23:24.731Z,21.00
2022-10-07T13:29:00.395Z,21.20
2022-10-07T13:34:29.221Z,21.40
2022-10-07T13:40:19.470Z,22.20
2022-10-07T13:45:47.655Z,23.00
2022-10-07T13:51:32.223Z,23.60
2022-10-07T13:57:07.761Z,23.90
2022-10-07T14:02:40.701Z,24.50
2022-10-07T14:08:17.072Z,24.80
2022-10-07T14:13:44.843Z,25.10
2022-10-07T14:19:20.872Z,25.00
2022-10-07T14:24:55.782Z,25.00
2022-10-07T14:30:57.875Z,24.40
2022-10-07T14:36:26.071Z,23.20
2022-10-07T14:41:54.129Z,23.30
2022-10-07T14:47:26.200Z,23.60
2022-10-07T14:52:53.993Z,23.40
2022-10-07T14:58:21.770Z,22.10
2022-10-07T15:03:50.435Z,21.20
2022-10-07T15:09:19.230Z,20.10
2022-10-07T15:14:47.109Z,19.40
2022-10-07T15:20:16.354Z,18.80
2022-10-07T15:25:44.270Z,18.20
2022-10-07T15:31:30.435Z,17.80
2022-10-07T15:36:58.487Z,17.40
2022-10-07T15:42:27.084Z,17.10
2022-10-07T15:47:59.617Z,16.70
2022-10-07T15:53:28.136Z,16.40
2022-10-07T15:58:56.412Z,16.20
2022-10-07T16:04:24.734Z,16.00
2022-10-07T16:09:52.545Z,15.80
2022-10-07T16:15:21.351Z,15.60
2022-10-07T16:20:49.280Z,15.40
2022-10-07T16:26:21.753Z,15.20
2022-10-07T16:31:54.624Z,15.10
2022-10-07T16:37:25.322Z,14.90
2022-10-07T16:42:53.233Z,14.80
2022-10-07T16:48:21.173Z,14.60
2022-10-07T16:53:54.116Z,14.40
2022-10-07T16:59:24.726Z,14.30
2022-10-07T17:04:52.775Z,14.20
2022-10-07T17:10:21.296Z,14.00
2022-10-07T17:15:55.951Z,13.90
2022-10-07T17:21:24.091Z,13.80
2022-10-07T17:26:55.212Z,13.70
2022-10-07T17:32:40.949Z,13.60
2022-10-07T17:38:27.739Z,13.50
2022-10-07T17:44:00.677Z,13.40
2022-10-07T17:49:29.943Z,13.30
2022-10-07T17:54:57.843Z,13.20
2022-10-07T18:00:27.316Z,13.10
2022-10-07T18:05:58.130Z,13.00
2022-10-07T18:11:53.323Z,12.90
2022-10-07T18:17:21.531Z,12.90
2022-10-07T18:22:57.140Z,12.80
2022-10-07T18:28:26.758Z,12.70
2022-10-07T18:33:54.560Z,12.60
2022-10-07T18:39:22.635Z,12.50
2022-10-07T18:44:50.681Z,12.50
2022-10-07T18:50:18.585Z,12.40
2022-10-07T18:55:46.677Z,12.30
2022-10-07T19:01:22.472Z,12.20
2022-10-07T19:06:50.723Z,12.10
2022-10-07T19:12:36.855Z,12.10
2022-10-07T19:18:05.277Z,12.00
2022-10-07T19:23:33.413Z,11.90
2022-10-07T19:29:03.284Z,11.90
2022-10-07T19:34:31.212Z,11.90
2022-10-07T19:39:59.718Z,11.90
2022-10-07T19:45:27.656Z,11.80
2022-10-07T19:51:09.043Z,11.80
2022-10-07T19:56:47.649Z,11.70
2022-10-07T20:02:19.782Z,11.60
2022-10-07T20:07:48.229Z,11.50
2022-10-07T20:13:17.638Z,11.40
2022-10-07T20:18:48.832Z,11.30
2022-10-07T20:24:17.112Z,11.30
2022-10-07T20:29:58.230Z,11.20
2022-10-07T20:35:29.471Z,11.10
2022-10-07T20:41:18.529Z,11.10
2022-10-07T20:46:46.287Z,11.00
2022-10-07T20:52:21.332Z,11.00
2022-10-07T20:57:49.531Z,10.90
2022-10-07T21:03:18.384Z,10.90
2022-10-07T21:08:53.600Z,10.80
2022-10-07T21:14:22.814Z,10.80
2022-10-07T21:19:50.909Z,10.80
2022-10-07T21:25:19.408Z,10.70
2022-10-07T21:31:02.842Z,10.70
2022-10-07T21:36:31.274Z,10.70
2022-10-07T21:41:59.858Z,10.60
2022-10-07T21:47:27.555Z,10.60
2022-10-07T21:52:55.351Z,10.50
2022-10-07T21:58:35.128Z,10.50
2022-10-07T22:04:21.902Z,10.40
2022-10-07T22:09:50.397Z,10.40
2022-10-07T22:15:18.926Z,10.40
2022-10-07T22:20:46.648Z,10.40
2022-10-07T22:26:14.394Z,10.50
2022-10-07T22:31:42.323Z,10.60
2022-10-07T22:37:10.156Z,10.50
2022-10-07T22:42:37.922Z,10.40
2022-10-07T22:48:06.577Z,10.40
2022-10-07T22:53:48.154Z,10.30
2022-10-07T22:59:16.139Z,10.30
2022-10-07T23:04:44.510Z,10.20
2022-10-07T23:10:12.328Z,10.20
2022-10-07T23:15:40.117Z,10.20
2022-10-07T23:21:13.809Z,10.10
2022-10-07T23:26:43.293Z,10.10
2022-10-07T23:32:11.163Z,10.10
2022-10-07T23:37:38.853Z,10.00
2022-10-07T23:43:07.211Z,10.00
2022-10-07T23:48:35.395Z,10.00
2022-10-07T23:54:05.797Z,9.90
2022-10-07T23:59:33.488Z,9.90
